Prospect Creek, Prospect Cree, AK

2:20 AM AKDT on July 28, 2014 (GMT -0800)
Bettles (PABT) Elev 643 ft | 66.91 °N, 151.53 °W | Change Station

Current weather conditions updated 27 minutes ago

Mostly Cloudy
Mostly Cloudy
46 °F
Feels Like 46 °F
N
0
Wind Variable Wind from North

Today is forecast to be nearly the same temperature as yesterday.

Today
High -- | Low -- °F
--% Chance of Precip.
Yesterday
High -- | Low -- °F
Precip. -- in
4:20 AM 11:53 PM
New Moon, 2% visible
Pressure 30.09 in
Visibility 10.0 miles
Clouds Scattered Clouds 8000 ft
Mostly Cloudy 17000 ft
Mostly Cloudy 22000 ft
Dew Point 41 °F
Humidity 83%
Rainfall 0.00 in
Snow Depth Not available.
UV 0 out of 12
Pollen Not available.
Air Quality Not available.
Flu Activity Not available.
METAR PABT 280953Z 00000KT 10SM SCT080 BKN170 BKN220 08/05 A3006 RMK AO2 SLP187 T00780050

More Conditions Fewer Conditions

Pressure 30.09 in
Visibility 10.0 miles
Clouds Scattered Clouds 8000 ft
Mostly Cloudy 17000 ft
Mostly Cloudy 22000 ft
Dew Point 41 °F
Humidity 83%
Rainfall 0.00 in
Snow Depth Not available.
UV 0 out of 12
Pollen Not available.
Air Quality Not available.
Flu Activity Not available.
METAR PABT 280953Z 00000KT 10SM SCT080 BKN170 BKN220 08/05 A3006 RMK AO2 SLP187 T00780050

More Conditions Fewer Conditions

10-Day Weather Forecast

Almanac

Astronomy

Jul. 28, 2014 Rise Set
Actual Time 4:20 AM AKDT 11:53 PM AKDT
Civil Twilight 2:41 AM AKDT 1:36 AM AKDT
Nautical Twilight Sun does not rise Sun does not rise
Astronomical Twilight Sun does not rise Sun does not rise
Moon 7:47 AM AKDT 10:52 PM AKDT
Length of Visible Light 22h 55m
Length of Day
19h 32m
Tomorrow will be 8m 54s shorter.
New Moon, 2% of the Moon is Illuminated
Today
New Moon
Aug 3
First Quarter
Aug 10
Full
Aug 17
Last Quarter
Aug 25
New

Today's Extremes

State Highs State Lows

Community

WunderPhotos

Upload Photos

1,738,292 photos uploaded!

Nearby

Snow Depth

Station Depth Elevation
Gobblers Knob 0 in 2030 ft
Coldfoot 0 in 1040 ft
Imnaviat Creek 0 in 3050 ft
Fort Yukon 3 in 430 ft
Little Chena Ridge 1 in 2000 ft

Earthquake Activity

City Distance Mag. Time & Date
No recent earthquake activity has been reported nearby.
Minimum magnitude displayed is 2.5.

Coastal Water Temperatures

Place Temperature
No Stations Reporting

Nearby Weather Stations

There are no personal weather stations in this area.